Time;durP1;ratioP1;P1;durP2;ratioP2;P2;SDS_P1;SDS_P2;PMS_P1;PMS_P2;Temp;Humidity;BMP_temperature;BMP_pressure;BME280_temperature;BME280_humidity;BME280_pressure;Samples;Min_cycle;Max_cycle;Signal;HPM_P1;HPM_P2
2021/07/01 00:00:46;;;;;;;3.63;1.47;;;22.00;50.80;;;;;;5063729;28;20271;-67
2021/07/01 00:03:13;;;;;;;2.23;1.20;;;22.00;51.00;;;;;;5061539;28;20280;-67
2021/07/01 00:05:42;;;;;;;12.13;1.77;;;21.90;51.20;;;;;;5063595;28;20217;-67
2021/07/01 00:08:09;;;;;;;1.50;1.40;;;21.90;51.70;;;;;;5062853;28;20592;-67
2021/07/01 00:10:36;;;;;;;2.47;1.47;;;21.90;52.30;;;;;;5060593;28;20218;-67
2021/07/01 00:13:04;;;;;;;5.50;1.43;;;21.90;53.10;;;;;;5064531;28;20230;-67
2021/07/01 00:15:33;;;;;;;2.20;1.10;;;21.90;54.10;;;;;;5061342;28;20594;-67
2021/07/01 00:18:01;;;;;;;5.90;1.47;;;21.90;55.00;;;;;;5059433;28;20257;-67
2021/07/01 00:20:29;;;;;;;7.03;1.40;;;21.80;55.00;;;;;;5062537;28;20214;-67
2021/07/01 00:22:56;;;;;;;4.00;1.47;;;21.70;54.70;;;;;;5064031;28;20217;-67
2021/07/01 00:25:24;;;;;;;4.23;1.43;;;21.50;54.90;;;;;;5061718;28;20299;-67
2021/07/01 00:27:51;;;;;;;5.53;1.40;;;21.50;55.20;;;;;;5062115;28;20280;-67
2021/07/01 00:30:20;;;;;;;10.87;1.70;;;21.40;55.60;;;;;;5059988;28;20218;-67
2021/07/01 00:32:48;;;;;;;5.27;2.00;;;21.40;55.70;;;;;;5067239;28;20610;-67
2021/07/01 00:35:15;;;;;;;9.97;1.90;;;21.20;56.00;;;;;;5062151;28;20210;-67
2021/07/01 00:37:43;;;;;;;6.07;1.43;;;21.20;56.50;;;;;;5068030;28;20213;-67
2021/07/01 00:40:12;;;;;;;4.30;1.43;;;21.10;56.00;;;;;;5066471;28;20218;-67
2021/07/01 00:42:39;;;;;;;4.90;1.20;;;21.20;56.30;;;;;;5065669;28;20218;-67
2021/07/01 00:45:08;;;;;;;4.23;1.70;;;21.20;56.60;;;;;;5065285;28;20226;-67
2021/07/01 00:47:36;;;;;;;4.37;1.77;;;21.20;56.60;;;;;;5062539;28;20218;-67
2021/07/01 00:50:08;;;;;;;4.60;1.13;;;21.30;57.00;;;;;;5067800;28;20218;-67
2021/07/01 00:52:36;;;;;;;3.97;1.17;;;21.30;56.90;;;;;;5065909;28;20237;-67
2021/07/01 00:55:05;;;;;;;5.93;1.13;;;21.30;56.70;;;;;;5065515;28;20214;-67
2021/07/01 00:57:33;;;;;;;6.60;1.23;;;21.30;56.80;;;;;;5066044;28;20210;-67
2021/07/01 01:00:07;;;;;;;5.30;1.63;;;21.20;57.10;;;;;;5066563;28;20612;-67
2021/07/01 01:02:34;;;;;;;9.27;2.20;;;21.20;58.10;;;;;;5064866;28;20218;-67
2021/07/01 01:05:01;;;;;;;6.00;1.40;;;21.20;58.50;;;;;;5066480;28;20221;-67
2021/07/01 01:07:28;;;;;;;6.13;1.50;;;21.20;58.60;;;;;;5067041;28;20213;-67
2021/07/01 01:09:56;;;;;;;1.60;1.20;;;21.20;58.30;;;;;;5064856;28;20271;-67
2021/07/01 01:12:23;;;;;;;6.67;1.90;;;21.10;58.20;;;;;;5066453;28;20259;-67
2021/07/01 01:14:50;;;;;;;4.67;1.20;;;21.10;58.60;;;;;;5067058;28;20214;-67
2021/07/01 01:17:17;;;;;;;4.63;2.00;;;21.10;58.90;;;;;;5062310;28;20249;-67
2021/07/01 01:19:44;;;;;;;1.43;1.20;;;21.10;59.10;;;;;;5064397;28;20218;-67
2021/07/01 01:22:11;;;;;;;7.50;2.10;;;21.10;59.20;;;;;;5063714;28;20641;-67
2021/07/01 01:24:38;;;;;;;8.93;1.80;;;21.00;59.10;;;;;;5065861;28;20214;-67
2021/07/01 01:27:05;;;;;;;9.10;1.77;;;21.10;59.30;;;;;;5064073;28;20298;-67
2021/07/01 01:29:32;;;;;;;8.97;1.30;;;21.00;59.50;;;;;;5063175;28;20209;-67
2021/07/01 01:31:59;;;;;;;6.67;1.80;;;21.00;59.50;;;;;;5063149;28;20226;-67
2021/07/01 01:34:26;;;;;;;6.63;1.70;;;21.00;59.50;;;;;;5064989;28;20214;-67
2021/07/01 01:36:53;;;;;;;7.43;1.80;;;21.00;59.90;;;;;;5065196;28;20210;-67
2021/07/01 01:39:21;;;;;;;11.07;1.87;;;21.00;60.10;;;;;;5063049;28;20279;-67
2021/07/01 01:41:48;;;;;;;4.93;1.40;;;21.00;59.90;;;;;;5064724;28;20267;-67
2021/07/01 01:44:15;;;;;;;7.57;1.60;;;21.00;59.50;;;;;;5064642;28;20221;-67
2021/07/01 01:46:42;;;;;;;3.20;1.40;;;20.90;59.40;;;;;;5064107;28;20213;-67
2021/07/01 01:49:10;;;;;;;4.03;1.33;;;20.80;59.90;;;;;;5066753;28;20236;-67
2021/07/01 01:51:38;;;;;;;4.63;1.80;;;20.80;60.20;;;;;;5063287;28;20234;-67
2021/07/01 01:54:06;;;;;;;8.33;1.70;;;20.70;60.30;;;;;;5065601;28;20206;-67
2021/07/01 01:56:48;;;;;;;7.43;2.03;;;20.70;60.50;;;;;;5065499;28;20206;-67
2021/07/01 01:59:17;;;;;;;6.30;1.40;;;20.70;60.80;;;;;;5060156;28;20214;-67
2021/07/01 02:01:44;;;;;;;7.57;1.50;;;20.70;60.30;;;;;;5063255;28;20593;-67
2021/07/01 02:04:16;;;;;;;2.40;1.10;;;20.50;60.30;;;;;;5063088;28;20218;-67
2021/07/01 02:06:43;;;;;;;8.07;1.73;;;20.50;60.60;;;;;;5063599;28;20209;-67
2021/07/01 02:09:10;;;;;;;6.20;1.50;;;20.40;60.90;;;;;;5065235;28;20213;-67
2021/07/01 02:11:37;;;;;;;2.43;1.20;;;20.50;61.30;;;;;;5062747;28;20218;-67
2021/07/01 02:14:04;;;;;;;8.57;1.57;;;20.50;61.50;;;;;;5064117;28;20209;-67
2021/07/01 02:16:31;;;;;;;2.23;1.47;;;20.60;61.50;;;;;;5016202;28;1331009;-67
2021/07/01 02:18:58;;;;;;;5.63;1.60;;;20.60;61.30;;;;;;5061260;28;20238;-67
2021/07/01 02:21:25;;;;;;;5.77;1.70;;;20.60;61.10;;;;;;5062536;28;20268;-67
2021/07/01 02:23:52;;;;;;;9.60;1.30;;;20.70;60.80;;;;;;5063535;28;20228;-67
2021/07/01 02:26:19;;;;;;;8.07;1.67;;;20.60;60.60;;;;;;5063331;28;20364;-67
2021/07/01 02:28:46;;;;;;;7.33;1.60;;;20.60;60.80;;;;;;5064080;28;20210;-67
2021/07/01 02:31:13;;;;;;;3.47;1.37;;;20.60;60.80;;;;;;5064748;28;20236;-67
2021/07/01 02:33:40;;;;;;;7.23;1.87;;;20.70;61.50;;;;;;5064381;28;20248;-67
2021/07/01 02:36:07;;;;;;;6.77;1.80;;;20.70;60.80;;;;;;5065473;28;20627;-67
2021/07/01 02:38:34;;;;;;;4.97;2.07;;;20.60;60.80;;;;;;5065664;28;20213;-67
2021/07/01 02:41:01;;;;;;;8.37;2.23;;;20.70;61.00;;;;;;5066000;28;20271;-67
2021/07/01 02:43:28;;;;;;;8.47;2.33;;;20.70;61.00;;;;;;5064333;28;20276;-67
2021/07/01 02:45:55;;;;;;;9.40;1.97;;;20.70;61.00;;;;;;5062349;28;20214;-67
2021/07/01 02:48:22;;;;;;;6.40;1.90;;;20.80;61.10;;;;;;5063473;28;20225;-67
2021/07/01 02:50:49;;;;;;;11.73;2.10;;;20.80;61.20;;;;;;5065829;28;20260;-67
2021/07/01 02:53:16;;;;;;;11.30;2.07;;;20.80;61.30;;;;;;5065074;28;20295;-67
2021/07/01 02:55:43;;;;;;;6.07;2.03;;;20.80;61.40;;;;;;5062070;28;20206;-67
2021/07/01 02:58:10;;;;;;;4.33;1.80;;;20.90;61.50;;;;;;5063106;28;20222;-67
2021/07/01 03:00:37;;;;;;;7.00;1.77;;;21.00;61.60;;;;;;5065328;28;20221;-67
2021/07/01 03:03:04;;;;;;;7.67;1.90;;;21.10;61.60;;;;;;5065789;28;20282;-67
2021/07/01 03:05:32;;;;;;;9.87;2.40;;;21.10;61.50;;;;;;5061565;28;20268;-67
2021/07/01 03:07:58;;;;;;;9.60;2.20;;;21.10;61.50;;;;;;5064954;28;20210;-67
2021/07/01 03:10:26;;;;;;;6.07;2.07;;;21.20;61.50;;;;;;5062546;28;20694;-67
2021/07/01 03:12:53;;;;;;;8.23;2.27;;;21.20;61.40;;;;;;5065935;28;20236;-67
2021/07/01 03:15:20;;;;;;;4.77;2.20;;;21.30;61.40;;;;;;5062899;28;20261;-67
2021/07/01 03:17:47;;;;;;;7.30;1.83;;;21.30;61.30;;;;;;5061917;28;20210;-67
2021/07/01 03:20:14;;;;;;;6.67;2.00;;;21.40;61.40;;;;;;5064317;28;20213;-67
2021/07/01 03:22:41;;;;;;;4.57;1.67;;;21.40;61.40;;;;;;5061258;28;20210;-67
2021/07/01 03:25:08;;;;;;;4.13;1.93;;;21.40;61.50;;;;;;5064853;28;20213;-67
2021/07/01 03:27:35;;;;;;;5.47;2.07;;;21.40;61.50;;;;;;5064928;28;20214;-67
2021/07/01 03:30:05;;;;;;;7.30;1.90;;;21.40;61.60;;;;;;5060493;28;20565;-67
2021/07/01 03:32:32;;;;;;;9.70;3.00;;;21.40;61.70;;;;;;5061882;28;20238;-67
2021/07/01 03:34:59;;;;;;;10.90;2.50;;;21.40;61.80;;;;;;5063851;28;20217;-67
2021/07/01 03:37:26;;;;;;;3.40;1.50;;;21.40;61.80;;;;;;5064497;28;20271;-67
2021/07/01 03:39:52;;;;;;;8.67;2.73;;;21.40;61.90;;;;;;5066103;28;20515;-67
2021/07/01 03:42:21;;;;;;;7.23;2.00;;;21.40;62.00;;;;;;5063138;28;20222;-67
2021/07/01 03:44:49;;;;;;;7.93;1.70;;;21.40;62.10;;;;;;5065858;28;20213;-67
2021/07/01 03:47:16;;;;;;;7.53;1.87;;;21.40;62.20;;;;;;5064345;28;20561;-67
2021/07/01 03:49:43;;;;;;;11.60;2.77;;;21.50;62.20;;;;;;5060859;28;20218;-67
2021/07/01 03:52:10;;;;;;;9.27;1.97;;;21.50;62.30;;;;;;5064399;28;20245;-67
2021/07/01 03:54:37;;;;;;;7.87;2.10;;;21.50;62.30;;;;;;5061741;28;20222;-67
2021/07/01 03:57:06;;;;;;;8.10;2.27;;;21.50;62.40;;;;;;5063013;28;20232;-67
2021/07/01 03:59:33;;;;;;;10.03;2.03;;;21.40;62.40;;;;;;5061642;28;20585;-67
2021/07/01 04:02:00;;;;;;;15.07;3.20;;;21.40;62.60;;;;;;5061692;28;20210;-67
2021/07/01 04:04:28;;;;;;;7.00;2.33;;;21.40;62.70;;;;;;5062894;28;20263;-67
2021/07/01 04:06:54;;;;;;;9.27;2.40;;;21.40;62.70;;;;;;5063778;28;20217;-68
2021/07/01 04:09:21;;;;;;;8.70;1.80;;;21.40;62.70;;;;;;5061681;28;20222;-67
2021/07/01 04:11:49;;;;;;;7.70;2.40;;;21.40;62.70;;;;;;5064373;28;20214;-67
2021/07/01 04:14:18;;;;;;;9.77;3.23;;;21.40;62.70;;;;;;5065214;28;20233;-67
2021/07/01 04:16:45;;;;;;;11.90;2.63;;;21.50;62.90;;;;;;5061298;28;20238;-67
2021/07/01 04:19:13;;;;;;;9.70;2.23;;;21.40;63.10;;;;;;5061191;28;20218;-67
2021/07/01 04:21:40;;;;;;;8.87;2.50;;;21.50;63.20;;;;;;5061136;28;20210;-67
2021/07/01 04:24:08;;;;;;;11.87;3.30;;;21.50;63.30;;;;;;5063765;28;20221;-67
2021/07/01 04:26:35;;;;;;;7.50;2.70;;;21.50;63.10;;;;;;5063171;28;20539;-67
2021/07/01 04:29:02;;;;;;;9.47;2.77;;;21.60;63.10;;;;;;5057687;28;20609;-67
2021/07/01 04:31:29;;;;;;;14.23;2.70;;;21.70;63.00;;;;;;5065249;28;20209;-67
2021/07/01 04:33:56;;;;;;;13.70;2.80;;;21.80;63.00;;;;;;5062342;28;20303;-67
2021/07/01 04:36:23;;;;;;;12.13;2.33;;;21.90;62.90;;;;;;5064104;28;20262;-67
2021/07/01 04:38:50;;;;;;;13.57;2.20;;;22.00;62.80;;;;;;5061590;28;20218;-67
2021/07/01 04:41:20;;;;;;;8.27;2.27;;;22.00;62.40;;;;;;5062280;28;20213;-67
2021/07/01 04:43:49;;;;;;;10.23;2.07;;;22.10;62.10;;;;;;5063911;28;20267;-67
2021/07/01 04:46:16;;;;;;;7.80;2.40;;;22.20;61.90;;;;;;5062322;28;20225;-67
2021/07/01 04:48:44;;;;;;;6.17;1.80;;;22.20;61.40;;;;;;5062054;28;20633;-68
2021/07/01 04:51:11;;;;;;;7.07;2.13;;;22.30;61.10;;;;;;5063946;28;20222;-68
2021/07/01 04:53:41;;;;;;;6.00;2.13;;;22.50;60.60;;;;;;5061957;28;20312;-67
2021/07/01 04:56:08;;;;;;;7.40;2.20;;;22.60;60.30;;;;;;5061131;28;20231;-67
2021/07/01 04:58:36;;;;;;;8.77;2.93;;;22.70;59.70;;;;;;5060459;28;20309;-67
2021/07/01 05:01:03;;;;;;;5.77;2.10;;;22.80;59.40;;;;;;5062441;28;20590;-67
2021/07/01 05:03:30;;;;;;;5.93;2.93;;;22.80;59.20;;;;;;5063837;28;20868;-68
2021/07/01 05:05:57;;;;;;;11.93;2.27;;;22.90;59.10;;;;;;5061096;28;20207;-68
2021/07/01 05:08:24;;;;;;;8.47;2.80;;;23.00;59.00;;;;;;5062004;28;20248;-68
2021/07/01 05:10:51;;;;;;;5.40;2.13;;;23.00;58.90;;;;;;5063512;28;20205;-67
2021/07/01 05:13:19;;;;;;;12.90;2.50;;;23.20;58.70;;;;;;5063650;28;20343;-67
2021/07/01 05:15:46;;;;;;;11.97;2.53;;;23.30;58.50;;;;;;5062180;28;20250;-68
2021/07/01 05:18:13;;;;;;;9.80;2.37;;;23.40;58.30;;;;;;5061995;28;20209;-68
2021/07/01 05:20:43;;;;;;;5.70;2.37;;;23.50;58.00;;;;;;5064832;28;20206;-67
2021/07/01 05:23:10;;;;;;;6.50;2.20;;;23.60;57.90;;;;;;5065451;28;20226;-67
2021/07/01 05:25:37;;;;;;;8.80;2.47;;;23.70;57.70;;;;;;5067156;28;20278;-67
2021/07/01 05:28:11;;;;;;;9.13;2.80;;;23.70;58.10;;;;;;5063242;28;20632;-67
2021/07/01 05:30:40;;;;;;;12.67;2.70;;;23.90;57.60;;;;;;5067579;28;20278;-67
2021/07/01 05:33:07;;;;;;;7.57;2.07;;;24.00;57.50;;;;;;5064859;28;20234;-67
2021/07/01 05:35:34;;;;;;;8.37;2.50;;;24.00;57.40;;;;;;5065511;28;20217;-67
2021/07/01 05:38:01;;;;;;;8.57;2.23;;;24.20;57.30;;;;;;5067029;28;20237;-67
2021/07/01 05:40:28;;;;;;;7.10;2.07;;;24.30;57.10;;;;;;5064695;28;20206;-67
2021/07/01 05:42:55;;;;;;;9.57;2.53;;;24.60;56.80;;;;;;5065267;28;20209;-67
2021/07/01 05:45:23;;;;;;;9.23;2.10;;;24.80;56.00;;;;;;5069474;28;20216;-67
2021/07/01 05:47:49;;;;;;;5.47;2.80;;;25.10;55.30;;;;;;5064125;28;20222;-67
2021/07/01 05:50:17;;;;;;;7.23;2.23;;;25.30;54.70;;;;;;5064216;28;20233;-67
2021/07/01 05:52:47;;;;;;;13.27;2.57;;;25.40;54.30;;;;;;5063849;28;20284;-67
2021/07/01 05:55:14;;;;;;;8.40;2.27;;;25.60;53.70;;;;;;5063759;28;20218;-67
2021/07/01 05:57:41;;;;;;;9.53;2.60;;;25.70;53.30;;;;;;5061798;28;20288;-67
2021/07/01 06:00:10;;;;;;;13.53;2.27;;;25.80;53.20;;;;;;5063596;28;20214;-67
2021/07/01 06:02:37;;;;;;;6.67;2.47;;;26.00;53.30;;;;;;5065603;28;20214;-67
2021/07/01 06:05:06;;;;;;;14.97;3.30;;;26.10;53.00;;;;;;5066123;28;20210;-67
2021/07/01 06:07:33;;;;;;;7.40;2.30;;;26.30;52.90;;;;;;5063593;28;20221;-67
2021/07/01 06:10:05;;;;;;;8.83;2.37;;;26.40;52.70;;;;;;5065275;28;20271;-67
2021/07/01 06:12:33;;;;;;;11.23;2.63;;;26.50;52.80;;;;;;5069690;28;20221;-68
2021/07/01 06:15:02;;;;;;;7.30;2.30;;;26.70;52.50;;;;;;5064325;28;20211;-68
2021/07/01 06:17:33;;;;;;;6.80;2.00;;;26.80;52.30;;;;;;5064218;28;20207;-68
2021/07/01 06:20:09;;;;;;;10.90;2.03;;;26.90;52.10;;;;;;5063804;28;20210;-68
2021/07/01 06:22:37;;;;;;;7.37;2.33;;;27.10;51.90;;;;;;5067399;28;20251;-68
2021/07/01 06:25:06;;;;;;;3.77;2.13;;;27.30;51.80;;;;;;5065764;28;20779;-68
2021/07/01 06:30:22;;;;;;;8.63;2.77;;;27.70;51.10;;;;;;5061400;28;20213;-68
2021/07/01 06:32:51;;;;;;;8.97;2.63;;;27.90;50.60;;;;;;5065879;28;20331;-68
2021/07/01 06:35:21;;;;;;;13.70;2.13;;;28.00;50.10;;;;;;5064477;28;20279;-68
2021/07/01 06:37:50;;;;;;;6.73;2.10;;;28.20;49.70;;;;;;5063041;28;20206;-68
2021/07/01 06:40:22;;;;;;;8.87;1.93;;;28.40;49.50;;;;;;5064071;28;20214;-68
2021/07/01 06:42:55;;;;;;;6.20;2.00;;;28.60;49.30;;;;;;5063677;28;20531;-68
2021/07/01 06:45:23;;;;;;;7.20;2.47;;;28.80;48.50;;;;;;5063557;28;20268;-68
2021/07/01 06:47:52;;;;;;;7.30;1.83;;;28.90;48.00;;;;;;5063611;28;20210;-68
2021/07/01 06:50:29;;;;;;;8.73;2.20;;;29.00;47.40;;;;;;5065837;28;20212;-68
2021/07/01 06:52:58;;;;;;;10.57;2.23;;;29.10;47.60;;;;;;5065202;28;20233;-68
2021/07/01 06:55:26;;;;;;;17.13;2.67;;;29.20;46.90;;;;;;5062604;28;20640;-68
2021/07/01 06:57:54;;;;;;;11.30;2.00;;;29.30;46.40;;;;;;5063903;28;20232;-68
2021/07/01 07:00:23;;;;;;;8.93;2.20;;;29.40;46.20;;;;;;5061588;28;20808;-68
2021/07/01 07:02:52;;;;;;;10.17;2.17;;;29.50;45.90;;;;;;5065009;28;20209;-68
2021/07/01 07:05:20;;;;;;;5.03;1.63;;;29.70;45.50;;;;;;5064888;28;20304;-68
2021/07/01 07:07:49;;;;;;;7.17;2.10;;;29.80;45.10;;;;;;5062149;28;20221;-68
2021/07/01 07:10:19;;;;;;;8.53;2.10;;;29.90;45.00;;;;;;5063862;28;20661;-68
2021/07/01 07:12:54;;;;;;;10.03;2.73;;;30.00;45.10;;;;;;5065049;28;20213;-68
2021/07/01 07:15:29;;;;;;;7.70;2.40;;;30.10;44.60;;;;;;5070125;28;20632;-68
2021/07/01 07:18:24;;;;;;;8.17;2.57;;;30.30;44.10;;;;;;5065027;28;20241;-68
2021/07/01 07:20:56;;;;;;;8.67;2.43;;;30.40;44.50;;;;;;5063249;28;20739;-68
2021/07/01 07:23:33;;;;;;;4.80;2.43;;;30.50;44.30;;;;;;5062056;28;20552;-67
2021/07/01 07:26:07;;;;;;;7.93;2.30;;;30.60;43.80;;;;;;5062920;28;20210;-67
2021/07/01 07:28:38;;;;;;;6.50;2.30;;;30.70;43.70;;;;;;5061506;28;20217;-67
2021/07/01 07:31:06;;;;;;;8.03;2.40;;;30.90;43.50;;;;;;5062597;28;20215;-67
2021/07/01 07:33:33;;;;;;;4.70;2.40;;;31.00;42.80;;;;;;5064467;28;20283;-67
2021/07/01 07:36:01;;;;;;;8.47;2.27;;;31.10;43.00;;;;;;5061818;28;20309;-67
2021/07/01 07:38:28;;;;;;;7.10;1.97;;;31.20;42.80;;;;;;5063127;28;20681;-67
2021/07/01 07:40:56;;;;;;;7.37;2.33;;;31.30;42.90;;;;;;5063608;28;20210;-67
2021/07/01 07:43:25;;;;;;;5.90;2.13;;;31.40;42.70;;;;;;5063360;28;20256;-67
2021/07/01 07:45:56;;;;;;;9.93;2.00;;;31.60;42.70;;;;;;5064376;28;20259;-68
2021/07/01 07:48:23;;;;;;;4.60;2.27;;;31.70;42.10;;;;;;5062482;28;20229;-68
2021/07/01 07:50:54;;;;;;;8.30;2.33;;;31.90;41.50;;;;;;5062541;28;20211;-68
2021/07/01 07:53:24;;;;;;;5.07;2.10;;;31.90;41.30;;;;;;5064605;28;20237;-68
2021/07/01 07:55:59;;;;;;;4.93;2.33;;;31.90;40.70;;;;;;5062661;28;20214;-68
2021/07/01 07:58:33;;;;;;;7.03;2.37;;;31.90;41.00;;;;;;5059973;28;20340;-67
2021/07/01 08:01:01;;;;;;;8.23;2.20;;;32.10;41.10;;;;;;5062032;28;20210;-67
2021/07/01 08:03:33;;;;;;;3.90;2.10;;;32.20;40.90;;;;;;5064358;28;20222;-67
2021/07/01 08:06:02;;;;;;;10.73;2.20;;;32.20;40.20;;;;;;5063522;28;20278;-67
2021/07/01 08:08:30;;;;;;;6.17;2.03;;;32.10;40.20;;;;;;5061584;28;20283;-68
2021/07/01 08:10:59;;;;;;;4.33;1.80;;;32.20;41.00;;;;;;5063507;28;20585;-68
2021/07/01 08:13:29;;;;;;;7.20;2.00;;;32.20;40.40;;;;;;5064381;28;20230;-68
2021/07/01 08:15:56;;;;;;;5.83;1.83;;;32.30;40.10;;;;;;5061481;28;20307;-68
2021/07/01 08:18:41;;;;;;;6.03;2.17;;;32.40;39.30;;;;;;5062616;28;20206;-68
2021/07/01 08:21:15;;;;;;;6.90;2.00;;;32.40;39.60;;;;;;5060287;28;20638;-68
2021/07/01 08:23:44;;;;;;;6.33;2.13;;;32.60;39.30;;;;;;5064312;28;20218;-68
2021/07/01 08:26:12;;;;;;;5.10;1.63;;;32.60;39.30;;;;;;5060187;28;20210;-68
2021/07/01 08:28:40;;;;;;;5.33;2.07;;;32.70;38.70;;;;;;5061394;28;20213;-68
2021/07/01 08:31:11;;;;;;;3.97;2.07;;;32.80;39.00;;;;;;5064395;28;20538;-68
2021/07/01 08:33:40;;;;;;;6.23;1.70;;;32.80;38.50;;;;;;5063152;28;20240;-68
2021/07/01 08:36:25;;;;;;;4.77;1.93;;;32.90;38.70;;;;;;5060991;28;20570;-68
2021/07/01 08:38:55;;;;;;;5.87;2.03;;;33.00;38.80;;;;;;5061288;28;20215;-68
2021/07/01 08:41:30;;;;;;;3.97;2.00;;;33.20;38.40;;;;;;5062734;28;20217;-68
2021/07/01 08:43:59;;;;;;;7.10;1.83;;;33.30;38.40;;;;;;5063964;28;20281;-68
2021/07/01 08:46:43;;;;;;;34.50;3.50;;;33.40;38.20;;;;;;5062414;28;20218;-68
2021/07/01 08:49:10;;;;;;;7.40;1.83;;;33.60;38.40;;;;;;5062333;28;20210;-68
2021/07/01 08:51:37;;;;;;;6.50;2.10;;;33.70;37.80;;;;;;5061329;28;20219;-68
2021/07/01 08:54:19;;;;;;;6.43;1.90;;;33.80;37.40;;;;;;5066425;28;20236;-68
2021/07/01 08:56:48;;;;;;;3.70;1.87;;;33.80;37.30;;;;;;5064117;28;20205;-68
2021/07/01 08:59:18;;;;;;;8.20;2.53;;;33.80;37.20;;;;;;5062090;28;20606;-68
2021/07/01 09:01:55;;;;;;;2.07;1.60;;;33.90;37.50;;;;;;5065263;28;20214;-68
2021/07/01 09:04:25;;;;;;;4.80;2.40;;;34.00;37.50;;;;;;5066212;28;21087;-68
2021/07/01 09:07:01;;;;;;;4.57;1.80;;;34.10;36.90;;;;;;5065088;28;20222;-68
2021/07/01 09:09:35;;;;;;;4.53;2.03;;;34.10;36.90;;;;;;5065680;28;20213;-68
2021/07/01 09:12:05;;;;;;;4.37;2.20;;;34.20;37.20;;;;;;5066832;28;20202;-68
2021/07/01 09:14:33;;;;;;;4.17;2.17;;;34.40;37.30;;;;;;5065717;28;20899;-68
2021/07/01 09:17:02;;;;;;;6.33;2.03;;;34.40;37.00;;;;;;5067259;28;20238;-68
2021/07/01 09:19:31;;;;;;;6.70;1.90;;;34.50;36.20;;;;;;5065373;28;20228;-68
2021/07/01 09:22:00;;;;;;;4.23;2.10;;;34.40;36.10;;;;;;5064938;28;20602;-68
2021/07/01 09:24:33;;;;;;;5.80;2.27;;;34.10;36.00;;;;;;5064595;28;20218;-68
2021/07/01 09:27:08;;;;;;;6.60;2.30;;;34.00;36.10;;;;;;5064154;28;20225;-68
2021/07/01 09:29:36;;;;;;;6.67;2.37;;;33.90;36.90;;;;;;5063499;28;20224;-68
2021/07/01 09:32:04;;;;;;;6.27;2.40;;;33.70;36.90;;;;;;5066375;28;20267;-68
2021/07/01 09:34:33;;;;;;;9.70;2.43;;;33.60;36.80;;;;;;5066276;28;20324;-68
2021/07/01 09:37:03;;;;;;;7.03;2.40;;;33.60;36.90;;;;;;5065735;28;20720;-68
2021/07/01 09:39:32;;;;;;;5.83;2.30;;;33.80;36.60;;;;;;5066976;28;20221;-68
2021/07/01 09:42:01;;;;;;;5.27;2.17;;;33.90;36.40;;;;;;5064517;28;20222;-68
2021/07/01 09:44:31;;;;;;;5.50;1.77;;;33.80;36.00;;;;;;5065003;28;20272;-68
2021/07/01 09:47:00;;;;;;;5.07;1.87;;;33.80;36.50;;;;;;5066995;28;20218;-68
2021/07/01 09:49:33;;;;;;;4.57;2.23;;;33.90;36.30;;;;;;5065452;28;20241;-68
2021/07/01 09:52:12;;;;;;;8.77;2.07;;;34.20;36.50;;;;;;5063789;28;20302;-68
2021/07/01 09:54:41;;;;;;;3.47;2.03;;;34.40;36.80;;;;;;5064084;28;20234;-68
2021/07/01 09:57:15;;;;;;;6.87;2.17;;;34.60;36.10;;;;;;5062760;28;20639;-68
2021/07/01 09:59:54;;;;;;;7.80;1.90;;;34.80;35.80;;;;;;5062832;28;20210;-68
2021/07/01 10:02:23;;;;;;;3.77;2.00;;;34.90;35.80;;;;;;5065511;28;20639;-68
2021/07/01 10:04:51;;;;;;;6.67;3.00;;;35.00;35.60;;;;;;5063167;28;20215;-68
2021/07/01 10:07:20;;;;;;;8.10;2.23;;;35.10;35.40;;;;;;5066286;28;20545;-68
2021/07/01 10:09:50;;;;;;;7.67;2.27;;;35.20;35.50;;;;;;5065903;28;20658;-68
2021/07/01 10:12:21;;;;;;;8.63;2.03;;;35.20;35.20;;;;;;5066719;28;20202;-68
2021/07/01 10:14:50;;;;;;;4.67;1.73;;;35.20;35.70;;;;;;5063452;28;20251;-69
2021/07/01 10:17:19;;;;;;;8.67;2.87;;;35.20;36.00;;;;;;5062124;28;20234;-69
2021/07/01 10:19:47;;;;;;;6.77;2.27;;;35.20;35.60;;;;;;5064707;28;20272;-68
2021/07/01 10:22:18;;;;;;;9.67;2.17;;;35.20;36.70;;;;;;5062928;28;20214;-68
2021/07/01 10:24:50;;;;;;;4.37;2.20;;;35.40;35.60;;;;;;5063774;28;20636;-68
2021/07/01 10:27:41;;;;;;;8.07;2.33;;;35.40;36.00;;;;;;5064907;28;20267;-68
2021/07/01 10:30:24;;;;;;;8.43;2.10;;;35.50;35.20;;;;;;5065905;28;20252;-68
2021/07/01 10:32:54;;;;;;;10.70;2.33;;;35.40;34.90;;;;;;5066044;28;20222;-68
2021/07/01 10:35:25;;;;;;;5.93;2.17;;;35.40;35.00;;;;;;5063612;28;20742;-68
2021/07/01 10:37:56;;;;;;;4.67;1.80;;;35.50;34.90;;;;;;5063518;28;20214;-68
2021/07/01 10:40:23;;;;;;;3.17;2.03;;;35.40;34.70;;;;;;5062942;28;20221;-68
2021/07/01 10:42:54;;;;;;;7.23;2.30;;;35.50;34.90;;;;;;5067191;28;20268;-68
2021/07/01 10:45:21;;;;;;;4.30;2.07;;;35.50;34.40;;;;;;5062781;28;20884;-68
2021/07/01 10:47:48;;;;;;;14.77;2.77;;;35.50;34.20;;;;;;5064914;28;20259;-68
2021/07/01 10:50:19;;;;;;;4.03;2.07;;;35.60;33.90;;;;;;5064898;28;20304;-68
2021/07/01 10:52:46;;;;;;;6.23;2.23;;;35.60;34.40;;;;;;5062762;28;20218;-68
2021/07/01 10:55:16;;;;;;;6.90;2.37;;;35.50;34.60;;;;;;5064243;28;20852;-68
2021/07/01 10:58:04;;;;;;;4.53;1.70;;;35.50;34.70;;;;;;5061643;28;20276;-68
2021/07/01 11:00:39;;;;;;;5.40;2.30;;;35.60;35.10;;;;;;5065648;28;20210;-68
2021/07/01 11:03:29;;;;;;;4.50;2.00;;;35.70;34.70;;;;;;5063531;28;20207;-68
2021/07/01 11:05:59;;;;;;;3.93;1.93;;;35.70;34.20;;;;;;5062702;28;20218;-68
2021/07/01 11:08:27;;;;;;;3.20;1.77;;;35.50;34.30;;;;;;5062703;28;20218;-68
2021/07/01 11:10:55;;;;;;;5.23;2.00;;;35.20;33.90;;;;;;5063428;28;20228;-68
2021/07/01 11:13:26;;;;;;;6.60;2.00;;;35.00;34.70;;;;;;5067933;28;20225;-68
2021/07/01 11:16:15;;;;;;;5.53;1.97;;;34.80;35.10;;;;;;5064315;28;20241;-68
2021/07/01 11:18:44;;;;;;;3.77;2.00;;;34.80;34.90;;;;;;5062991;28;20297;-68
2021/07/01 11:21:20;;;;;;;6.33;2.63;;;34.80;35.10;;;;;;5062120;28;20207;-68
2021/07/01 11:23:51;;;;;;;3.87;1.97;;;34.70;35.30;;;;;;5063343;28;20688;-68
2021/07/01 11:26:29;;;;;;;6.20;1.87;;;34.80;35.40;;;;;;5065075;28;20377;-68
2021/07/01 11:28:59;;;;;;;5.40;2.10;;;34.80;35.10;;;;;;5064402;28;20236;-68
2021/07/01 11:31:43;;;;;;;7.93;2.00;;;34.70;35.10;;;;;;5062450;28;20241;-68
2021/07/01 11:34:14;;;;;;;6.60;1.97;;;34.50;35.00;;;;;;5061810;28;20242;-68
2021/07/01 11:36:48;;;;;;;5.43;1.60;;;34.50;35.90;;;;;;5063443;28;20214;-68
2021/07/01 11:39:22;;;;;;;5.13;1.70;;;34.60;35.10;;;;;;5064225;28;20590;-68
2021/07/01 11:41:50;;;;;;;4.63;1.77;;;34.80;34.10;;;;;;5062435;28;20586;-68
2021/07/01 11:44:18;;;;;;;4.33;1.50;;;35.00;34.30;;;;;;5061826;28;20225;-68
2021/07/01 11:46:45;;;;;;;5.50;1.80;;;35.10;34.30;;;;;;5063304;28;20221;-68
2021/07/01 11:49:13;;;;;;;2.63;1.50;;;35.30;34.10;;;;;;5064364;28;20217;-68
2021/07/01 11:51:41;;;;;;;3.63;1.80;;;35.40;34.10;;;;;;5062432;28;20225;-68
2021/07/01 11:54:09;;;;;;;3.50;1.87;;;35.50;34.10;;;;;;5060798;28;20286;-68
2021/07/01 11:59:32;;;;;;;3.80;2.10;;;35.40;33.30;;;;;;5060753;28;20210;-68
2021/07/01 12:02:02;;;;;;;3.03;1.70;;;35.30;34.20;;;;;;5062484;28;20218;-68
2021/07/01 12:04:35;;;;;;;2.57;1.70;;;35.40;33.90;;;;;;5064395;28;20217;-68
2021/07/01 12:07:20;;;;;;;2.83;1.70;;;35.40;32.70;;;;;;5063223;28;20217;-68
2021/07/01 12:09:48;;;;;;;4.40;2.23;;;35.20;33.20;;;;;;5063205;28;20218;-68
2021/07/01 12:12:17;;;;;;;2.80;1.57;;;35.20;34.00;;;;;;5065064;28;20210;-68
2021/07/01 12:15:09;;;;;;;3.57;1.60;;;35.30;33.80;;;;;;5060345;28;20226;-68
2021/07/01 12:17:52;;;;;;;3.13;1.57;;;35.40;34.20;;;;;;5060920;28;20229;-68
2021/07/01 12:20:25;;;;;;;3.93;1.93;;;35.40;33.50;;;;;;5062941;28;20668;-68
2021/07/01 12:22:54;;;;;;;2.73;1.53;;;35.40;33.30;;;;;;5061352;28;20218;-69
2021/07/01 12:25:26;;;;;;;6.33;2.10;;;35.50;33.60;;;;;;5063136;28;20294;-68
2021/07/01 12:30:56;;;;;;;4.33;1.57;;;35.70;33.10;;;;;;5067507;28;20244;-68
2021/07/01 12:33:35;;;;;;;4.37;1.67;;;35.60;33.00;;;;;;5068115;28;20221;-68
2021/07/01 12:36:21;;;;;;;4.83;1.80;;;35.40;33.10;;;;;;5067287;28;20245;-68
2021/07/01 12:39:21;;;;;;;2.87;1.50;;;35.10;32.60;;;;;;5067323;28;20217;-68
2021/07/01 12:42:14;;;;;;;2.03;1.50;;;34.90;33.70;;;;;;5065621;28;20214;-68
2021/07/01 12:44:44;;;;;;;3.30;1.60;;;34.80;33.30;;;;;;5066298;28;20236;-68
2021/07/01 12:47:27;;;;;;;4.73;1.70;;;34.90;33.20;;;;;;5065529;28;20230;-68
2021/07/01 12:49:57;;;;;;;3.83;2.10;;;34.80;32.90;;;;;;5067692;28;20643;-68
2021/07/01 12:52:33;;;;;;;11.27;2.20;;;34.80;33.40;;;;;;5065378;28;20587;-69
2021/07/01 12:55:01;;;;;;;5.13;2.00;;;34.90;33.60;;;;;;5064888;28;20245;-68
2021/07/01 12:57:29;;;;;;;2.47;1.43;;;35.00;33.20;;;;;;5065235;28;20260;-69
2021/07/01 12:59:56;;;;;;;3.50;1.90;;;35.00;33.60;;;;;;5064223;28;20358;-69
2021/07/01 13:02:25;;;;;;;4.53;1.50;;;35.00;33.30;;;;;;5067537;28;20639;-68
2021/07/01 13:05:00;;;;;;;7.17;2.03;;;35.10;33.20;;;;;;5065568;28;20214;-69
2021/07/01 13:07:30;;;;;;;7.00;2.27;;;35.20;32.80;;;;;;5064923;28;20540;-69